sensor_id;sensor_type;location;lat;lon;timestamp;temperature;humidity
48806;DHT22;34625;47.176;27.548;2022-11-30T00:00:19;22.00;58.50
48806;DHT22;34625;47.176;27.548;2022-11-30T00:02:46;22.00;58.30
48806;DHT22;34625;47.176;27.548;2022-11-30T00:05:14;22.10;58.30
48806;DHT22;34625;47.176;27.548;2022-11-30T00:07:40;22.00;58.20
48806;DHT22;34625;47.176;27.548;2022-11-30T00:10:06;22.00;58.20
48806;DHT22;34625;47.176;27.548;2022-11-30T00:12:33;21.90;58.30
48806;DHT22;34625;47.176;27.548;2022-11-30T00:14:59;21.80;58.30
48806;DHT22;34625;47.176;27.548;2022-11-30T00:17:25;21.90;58.30
48806;DHT22;34625;47.176;27.548;2022-11-30T00:19:51;21.80;58.20
48806;DHT22;34625;47.176;27.548;2022-11-30T00:22:16;21.80;58.10
48806;DHT22;34625;47.176;27.548;2022-11-30T00:24:42;21.80;58.20
48806;DHT22;34625;47.176;27.548;2022-11-30T00:27:08;21.90;58.30
48806;DHT22;34625;47.176;27.548;2022-11-30T00:29:34;21.80;58.10
48806;DHT22;34625;47.176;27.548;2022-11-30T00:32:00;21.80;58.00
48806;DHT22;34625;47.176;27.548;2022-11-30T00:34:26;21.90;58.10
48806;DHT22;34625;47.176;27.548;2022-11-30T00:36:52;21.80;57.90
48806;DHT22;34625;47.176;27.548;2022-11-30T00:39:18;21.90;58.10
48806;DHT22;34625;47.176;27.548;2022-11-30T00:41:44;22.00;58.00
48806;DHT22;34625;47.176;27.548;2022-11-30T00:44:10;21.90;58.00
48806;DHT22;34625;47.176;27.548;2022-11-30T00:46:36;21.90;57.90
48806;DHT22;34625;47.176;27.548;2022-11-30T00:49:02;21.90;57.70
48806;DHT22;34625;47.176;27.548;2022-11-30T00:51:28;21.90;57.60
48806;DHT22;34625;47.176;27.548;2022-11-30T00:53:54;21.80;57.50
48806;DHT22;34625;47.176;27.548;2022-11-30T00:56:20;21.90;57.70
48806;DHT22;34625;47.176;27.548;2022-11-30T00:58:46;21.80;57.70
48806;DHT22;34625;47.176;27.548;2022-11-30T01:01:12;21.80;57.60
48806;DHT22;34625;47.176;27.548;2022-11-30T01:03:38;21.60;57.60
48806;DHT22;34625;47.176;27.548;2022-11-30T01:06:06;21.60;57.60
48806;DHT22;34625;47.176;27.548;2022-11-30T01:08:33;21.60;57.60
48806;DHT22;34625;47.176;27.548;2022-11-30T01:11:10;21.60;57.60
48806;DHT22;34625;47.176;27.548;2022-11-30T01:13:37;21.70;57.80
48806;DHT22;34625;47.176;27.548;2022-11-30T01:16:12;21.60;57.70
48806;DHT22;34625;47.176;27.548;2022-11-30T01:18:41;21.70;57.60
48806;DHT22;34625;47.176;27.548;2022-11-30T01:21:09;21.60;57.50
48806;DHT22;34625;47.176;27.548;2022-11-30T01:23:35;21.70;57.50
48806;DHT22;34625;47.176;27.548;2022-11-30T01:26:01;21.70;57.40
48806;DHT22;34625;47.176;27.548;2022-11-30T01:28:27;21.60;57.40
48806;DHT22;34625;47.176;27.548;2022-11-30T01:31:04;21.60;57.20
48806;DHT22;34625;47.176;27.548;2022-11-30T01:33:31;21.60;57.20
48806;DHT22;34625;47.176;27.548;2022-11-30T01:36:11;21.70;57.20
48806;DHT22;34625;47.176;27.548;2022-11-30T01:38:44;21.70;57.00
48806;DHT22;34625;47.176;27.548;2022-11-30T01:41:13;21.70;57.00
48806;DHT22;34625;47.176;27.548;2022-11-30T01:51:33;21.60;56.80
48806;DHT22;34625;47.176;27.548;2022-11-30T01:54:01;21.50;56.80
48806;DHT22;34625;47.176;27.548;2022-11-30T01:56:28;21.50;56.80
48806;DHT22;34625;47.176;27.548;2022-11-30T01:58:54;21.50;56.80
48806;DHT22;34625;47.176;27.548;2022-11-30T02:01:20;21.50;56.80
48806;DHT22;34625;47.176;27.548;2022-11-30T02:03:56;21.60;56.80
48806;DHT22;34625;47.176;27.548;2022-11-30T02:06:24;21.50;56.80
48806;DHT22;34625;47.176;27.548;2022-11-30T02:08:51;21.60;56.80
48806;DHT22;34625;47.176;27.548;2022-11-30T02:11:18;21.60;56.70
48806;DHT22;34625;47.176;27.548;2022-11-30T02:30:17;21.50;56.50
48806;DHT22;34625;47.176;27.548;2022-11-30T02:32:51;21.40;56.50
48806;DHT22;34625;47.176;27.548;2022-11-30T02:35:21;21.50;56.60
48806;DHT22;34625;47.176;27.548;2022-11-30T02:37:51;21.50;56.60
48806;DHT22;34625;47.176;27.548;2022-11-30T02:40:19;21.30;56.50
48806;DHT22;34625;47.176;27.548;2022-11-30T02:42:47;21.50;56.50
48806;DHT22;34625;47.176;27.548;2022-11-30T02:45:14;21.30;56.50
48806;DHT22;34625;47.176;27.548;2022-11-30T02:48:12;21.40;56.40
48806;DHT22;34625;47.176;27.548;2022-11-30T02:50:40;21.40;56.20
48806;DHT22;34625;47.176;27.548;2022-11-30T02:53:09;21.50;56.20
48806;DHT22;34625;47.176;27.548;2022-11-30T02:55:35;21.40;56.20
48806;DHT22;34625;47.176;27.548;2022-11-30T02:58:01;21.50;56.20
48806;DHT22;34625;47.176;27.548;2022-11-30T03:00:27;21.50;56.20
48806;DHT22;34625;47.176;27.548;2022-11-30T03:02:53;21.40;56.10
48806;DHT22;34625;47.176;27.548;2022-11-30T03:05:20;21.50;56.10
48806;DHT22;34625;47.176;27.548;2022-11-30T03:07:46;21.50;56.10
48806;DHT22;34625;47.176;27.548;2022-11-30T03:10:12;21.40;55.90
48806;DHT22;34625;47.176;27.548;2022-11-30T03:12:38;21.30;56.00
48806;DHT22;34625;47.176;27.548;2022-11-30T03:15:04;21.30;55.90
48806;DHT22;34625;47.176;27.548;2022-11-30T03:17:31;21.40;55.90
48806;DHT22;34625;47.176;27.548;2022-11-30T03:19:57;21.40;55.90
48806;DHT22;34625;47.176;27.548;2022-11-30T03:22:23;21.30;56.00
48806;DHT22;34625;47.176;27.548;2022-11-30T03:24:49;21.30;56.00
48806;DHT22;34625;47.176;27.548;2022-11-30T03:27:15;21.30;56.10
48806;DHT22;34625;47.176;27.548;2022-11-30T03:29:41;21.30;56.00
48806;DHT22;34625;47.176;27.548;2022-11-30T03:32:07;21.30;56.00
48806;DHT22;34625;47.176;27.548;2022-11-30T03:34:33;21.20;55.80
48806;DHT22;34625;47.176;27.548;2022-11-30T03:36:59;21.40;55.80
48806;DHT22;34625;47.176;27.548;2022-11-30T03:39:26;21.30;55.70
48806;DHT22;34625;47.176;27.548;2022-11-30T03:41:52;21.50;55.80
48806;DHT22;34625;47.176;27.548;2022-11-30T03:44:18;21.40;55.60
48806;DHT22;34625;47.176;27.548;2022-11-30T03:46:44;21.50;55.50
48806;DHT22;34625;47.176;27.548;2022-11-30T03:49:10;21.60;55.30
48806;DHT22;34625;47.176;27.548;2022-11-30T03:51:36;21.50;55.10
48806;DHT22;34625;47.176;27.548;2022-11-30T03:54:02;21.60;55.20
48806;DHT22;34625;47.176;27.548;2022-11-30T03:56:28;21.50;55.30
48806;DHT22;34625;47.176;27.548;2022-11-30T03:58:54;21.60;54.80
48806;DHT22;34625;47.176;27.548;2022-11-30T04:01:21;21.60;54.90
48806;DHT22;34625;47.176;27.548;2022-11-30T04:03:51;21.50;54.90
48806;DHT22;34625;47.176;27.548;2022-11-30T04:06:18;21.60;55.00
48806;DHT22;34625;47.176;27.548;2022-11-30T04:08:45;21.50;55.20
48806;DHT22;34625;47.176;27.548;2022-11-30T04:11:12;21.50;55.10
48806;DHT22;34625;47.176;27.548;2022-11-30T04:13:39;21.50;55.20
48806;DHT22;34625;47.176;27.548;2022-11-30T04:16:06;21.40;55.10
48806;DHT22;34625;47.176;27.548;2022-11-30T04:18:33;21.50;55.20
48806;DHT22;34625;47.176;27.548;2022-11-30T04:21:00;21.50;55.10
48806;DHT22;34625;47.176;27.548;2022-11-30T04:23:32;21.60;55.10
48806;DHT22;34625;47.176;27.548;2022-11-30T04:25:58;21.50;55.10
48806;DHT22;34625;47.176;27.548;2022-11-30T04:28:24;21.40;55.00
48806;DHT22;34625;47.176;27.548;2022-11-30T04:30:52;21.50;55.10
48806;DHT22;34625;47.176;27.548;2022-11-30T04:33:18;21.50;55.10
48806;DHT22;34625;47.176;27.548;2022-11-30T04:35:50;21.60;54.90
48806;DHT22;34625;47.176;27.548;2022-11-30T04:38:17;21.50;55.00
48806;DHT22;34625;47.176;27.548;2022-11-30T04:40:43;21.60;54.80
48806;DHT22;34625;47.176;27.548;2022-11-30T04:43:11;21.50;54.90
48806;DHT22;34625;47.176;27.548;2022-11-30T04:45:37;21.50;55.00
48806;DHT22;34625;47.176;27.548;2022-11-30T04:48:04;21.40;54.90
48806;DHT22;34625;47.176;27.548;2022-11-30T04:50:30;21.50;55.10
48806;DHT22;34625;47.176;27.548;2022-11-30T04:52:56;21.40;55.10
48806;DHT22;34625;47.176;27.548;2022-11-30T04:55:23;21.40;55.00
48806;DHT22;34625;47.176;27.548;2022-11-30T04:57:49;21.20;55.10
48806;DHT22;34625;47.176;27.548;2022-11-30T05:00:16;21.20;55.10
48806;DHT22;34625;47.176;27.548;2022-11-30T05:02:43;21.10;55.20
48806;DHT22;34625;47.176;27.548;2022-11-30T05:05:09;21.20;55.10
48806;DHT22;34625;47.176;27.548;2022-11-30T05:07:35;21.20;55.10
48806;DHT22;34625;47.176;27.548;2022-11-30T05:10:02;21.20;55.10
48806;DHT22;34625;47.176;27.548;2022-11-30T05:12:28;21.30;55.60
48806;DHT22;34625;47.176;27.548;2022-11-30T05:14:54;21.30;55.40
48806;DHT22;34625;47.176;27.548;2022-11-30T05:17:20;21.20;55.20
48806;DHT22;34625;47.176;27.548;2022-11-30T05:19:46;21.40;55.30
48806;DHT22;34625;47.176;27.548;2022-11-30T05:22:12;21.40;55.80
48806;DHT22;34625;47.176;27.548;2022-11-30T05:24:38;21.20;56.30
48806;DHT22;34625;47.176;27.548;2022-11-30T05:27:05;21.30;57.10
48806;DHT22;34625;47.176;27.548;2022-11-30T05:29:30;21.40;57.60
48806;DHT22;34625;47.176;27.548;2022-11-30T05:31:57;21.50;57.50
48806;DHT22;34625;47.176;27.548;2022-11-30T05:34:22;21.70;58.30
48806;DHT22;34625;47.176;27.548;2022-11-30T05:36:48;22.00;62.50
48806;DHT22;34625;47.176;27.548;2022-11-30T05:39:14;22.40;63.90
48806;DHT22;34625;47.176;27.548;2022-11-30T05:41:40;22.60;62.70
48806;DHT22;34625;47.176;27.548;2022-11-30T05:44:07;22.60;57.60
48806;DHT22;34625;47.176;27.548;2022-11-30T05:46:33;22.60;55.90
48806;DHT22;34625;47.176;27.548;2022-11-30T05:48:59;22.60;55.20
48806;DHT22;34625;47.176;27.548;2022-11-30T05:51:25;22.60;54.20
48806;DHT22;34625;47.176;27.548;2022-11-30T05:53:51;22.50;53.00
48806;DHT22;34625;47.176;27.548;2022-11-30T05:56:19;22.50;51.90
48806;DHT22;34625;47.176;27.548;2022-11-30T05:58:46;22.60;50.60
48806;DHT22;34625;47.176;27.548;2022-11-30T06:01:20;22.50;48.70
48806;DHT22;34625;47.176;27.548;2022-11-30T06:03:46;22.50;47.70
48806;DHT22;34625;47.176;27.548;2022-11-30T06:06:12;22.50;46.80
48806;DHT22;34625;47.176;27.548;2022-11-30T06:08:38;22.60;47.00
48806;DHT22;34625;47.176;27.548;2022-11-30T06:11:04;22.40;48.20
48806;DHT22;34625;47.176;27.548;2022-11-30T06:13:30;22.20;49.40
48806;DHT22;34625;47.176;27.548;2022-11-30T06:15:59;22.10;51.10
48806;DHT22;34625;47.176;27.548;2022-11-30T06:18:25;22.20;52.00
48806;DHT22;34625;47.176;27.548;2022-11-30T06:20:51;22.20;51.70
48806;DHT22;34625;47.176;27.548;2022-11-30T06:23:17;22.20;44.70
48806;DHT22;34625;47.176;27.548;2022-11-30T06:25:43;22.20;43.60
48806;DHT22;34625;47.176;27.548;2022-11-30T06:28:09;22.20;43.70
48806;DHT22;34625;47.176;27.548;2022-11-30T06:30:36;22.30;44.50
48806;DHT22;34625;47.176;27.548;2022-11-30T06:33:02;22.30;44.50
48806;DHT22;34625;47.176;27.548;2022-11-30T06:35:28;22.30;44.00
48806;DHT22;34625;47.176;27.548;2022-11-30T06:37:55;22.30;44.40
48806;DHT22;34625;47.176;27.548;2022-11-30T06:40:22;22.30;44.90
48806;DHT22;34625;47.176;27.548;2022-11-30T06:42:47;22.30;46.10
48806;DHT22;34625;47.176;27.548;2022-11-30T06:45:13;22.30;43.50
48806;DHT22;34625;47.176;27.548;2022-11-30T06:47:39;22.20;42.60
48806;DHT22;34625;47.176;27.548;2022-11-30T06:50:06;22.10;43.80
48806;DHT22;34625;47.176;27.548;2022-11-30T06:52:33;22.30;44.00
48806;DHT22;34625;47.176;27.548;2022-11-30T06:54:59;22.10;43.50
48806;DHT22;34625;47.176;27.548;2022-11-30T06:57:29;22.20;45.50
48806;DHT22;34625;47.176;27.548;2022-11-30T06:59:55;22.30;45.90
48806;DHT22;34625;47.176;27.548;2022-11-30T07:02:22;22.40;43.00
48806;DHT22;34625;47.176;27.548;2022-11-30T07:04:48;22.30;45.30
48806;DHT22;34625;47.176;27.548;2022-11-30T07:07:15;22.30;44.00
48806;DHT22;34625;47.176;27.548;2022-11-30T07:09:41;22.50;45.80
48806;DHT22;34625;47.176;27.548;2022-11-30T07:12:07;22.60;46.40
48806;DHT22;34625;47.176;27.548;2022-11-30T07:14:34;22.70;46.50
48806;DHT22;34625;47.176;27.548;2022-11-30T07:17:00;22.60;44.60
48806;DHT22;34625;47.176;27.548;2022-11-30T07:19:30;22.80;55.00
48806;DHT22;34625;47.176;27.548;2022-11-30T07:21:56;22.70;56.10
48806;DHT22;34625;47.176;27.548;2022-11-30T07:24:22;22.80;56.00
48806;DHT22;34625;47.176;27.548;2022-11-30T07:27:06;22.60;56.90
48806;DHT22;34625;47.176;27.548;2022-11-30T07:29:32;22.50;56.50
48806;DHT22;34625;47.176;27.548;2022-11-30T07:31:58;22.20;57.50
48806;DHT22;34625;47.176;27.548;2022-11-30T07:34:24;22.20;57.90
48806;DHT22;34625;47.176;27.548;2022-11-30T07:36:50;22.10;57.80
48806;DHT22;34625;47.176;27.548;2022-11-30T07:39:16;22.10;57.90
48806;DHT22;34625;47.176;27.548;2022-11-30T07:41:43;22.20;58.30
48806;DHT22;34625;47.176;27.548;2022-11-30T07:44:09;22.10;58.60
48806;DHT22;34625;47.176;27.548;2022-11-30T07:46:37;22.10;58.70
48806;DHT22;34625;47.176;27.548;2022-11-30T07:49:04;22.00;58.50
48806;DHT22;34625;47.176;27.548;2022-11-30T07:51:32;22.00;58.50
48806;DHT22;34625;47.176;27.548;2022-11-30T07:53:58;22.00;58.80
48806;DHT22;34625;47.176;27.548;2022-11-30T07:56:25;21.90;58.80
48806;DHT22;34625;47.176;27.548;2022-11-30T07:58:57;22.00;58.80
48806;DHT22;34625;47.176;27.548;2022-11-30T08:01:26;22.00;58.90
48806;DHT22;34625;47.176;27.548;2022-11-30T08:03:52;21.90;58.90
48806;DHT22;34625;47.176;27.548;2022-11-30T08:06:23;22.00;59.20
48806;DHT22;34625;47.176;27.548;2022-11-30T08:08:51;22.10;58.80
48806;DHT22;34625;47.176;27.548;2022-11-30T08:11:20;22.30;58.10
48806;DHT22;34625;47.176;27.548;2022-11-30T08:13:47;22.50;56.50
48806;DHT22;34625;47.176;27.548;2022-11-30T08:16:24;22.60;55.30
48806;DHT22;34625;47.176;27.548;2022-11-30T08:18:50;22.60;54.60
48806;DHT22;34625;47.176;27.548;2022-11-30T08:21:18;22.70;54.30
48806;DHT22;34625;47.176;27.548;2022-11-30T08:23:47;22.70;53.80
48806;DHT22;34625;47.176;27.548;2022-11-30T08:26:21;22.60;53.60
48806;DHT22;34625;47.176;27.548;2022-11-30T08:28:49;22.80;55.00
48806;DHT22;34625;47.176;27.548;2022-11-30T08:31:21;22.80;56.30
48806;DHT22;34625;47.176;27.548;2022-11-30T08:33:47;22.80;55.30
48806;DHT22;34625;47.176;27.548;2022-11-30T08:36:19;22.90;55.10
48806;DHT22;34625;47.176;27.548;2022-11-30T08:38:46;23.00;54.60
48806;DHT22;34625;47.176;27.548;2022-11-30T08:41:16;23.10;54.10
48806;DHT22;34625;47.176;27.548;2022-11-30T08:43:43;23.30;55.30
48806;DHT22;34625;47.176;27.548;2022-11-30T08:46:12;23.50;53.80
48806;DHT22;34625;47.176;27.548;2022-11-30T08:48:38;23.20;52.20
48806;DHT22;34625;47.176;27.548;2022-11-30T08:51:06;23.30;51.80
48806;DHT22;34625;47.176;27.548;2022-11-30T08:53:34;23.40;51.40
48806;DHT22;34625;47.176;27.548;2022-11-30T08:56:03;23.30;50.80
48806;DHT22;34625;47.176;27.548;2022-11-30T08:58:31;23.30;51.80
48806;DHT22;34625;47.176;27.548;2022-11-30T09:01:15;23.30;51.80
48806;DHT22;34625;47.176;27.548;2022-11-30T09:03:42;23.30;51.60
48806;DHT22;34625;47.176;27.548;2022-11-30T09:06:11;23.40;51.30
48806;DHT22;34625;47.176;27.548;2022-11-30T09:08:38;23.20;51.20
48806;DHT22;34625;47.176;27.548;2022-11-30T09:11:20;23.30;51.60
48806;DHT22;34625;47.176;27.548;2022-11-30T09:13:47;23.30;51.60
48806;DHT22;34625;47.176;27.548;2022-11-30T09:16:18;23.30;51.80
48806;DHT22;34625;47.176;27.548;2022-11-30T09:18:46;23.30;51.80
48806;DHT22;34625;47.176;27.548;2022-11-30T09:21:14;23.30;52.30
48806;DHT22;34625;47.176;27.548;2022-11-30T09:23:40;23.20;51.90
48806;DHT22;34625;47.176;27.548;2022-11-30T09:26:10;23.20;53.80
48806;DHT22;34625;47.176;27.548;2022-11-30T09:28:37;23.30;53.10
48806;DHT22;34625;47.176;27.548;2022-11-30T09:31:06;23.40;46.50
48806;DHT22;34625;47.176;27.548;2022-11-30T09:33:33;23.40;45.00
48806;DHT22;34625;47.176;27.548;2022-11-30T09:36:01;23.20;43.90
48806;DHT22;34625;47.176;27.548;2022-11-30T09:38:28;23.30;45.20
48806;DHT22;34625;47.176;27.548;2022-11-30T09:40:59;23.30;44.00
48806;DHT22;34625;47.176;27.548;2022-11-30T09:43:52;23.20;49.30
48806;DHT22;34625;47.176;27.548;2022-11-30T09:46:32;23.20;51.40
48806;DHT22;34625;47.176;27.548;2022-11-30T09:49:04;23.20;51.20
48806;DHT22;34625;47.176;27.548;2022-11-30T09:51:50;23.20;51.60
48806;DHT22;34625;47.176;27.548;2022-11-30T09:54:31;22.90;52.20
48806;DHT22;34625;47.176;27.548;2022-11-30T09:57:25;23.00;47.40
48806;DHT22;34625;47.176;27.548;2022-11-30T10:00:09;22.90;46.10
48806;DHT22;34625;47.176;27.548;2022-11-30T10:02:40;23.20;47.40
48806;DHT22;34625;47.176;27.548;2022-11-30T10:05:14;23.20;46.40
48806;DHT22;34625;47.176;27.548;2022-11-30T10:21:16;23.40;43.10
48806;DHT22;34625;47.176;27.548;2022-11-30T10:26:21;23.30;43.40
48806;DHT22;34625;47.176;27.548;2022-11-30T10:28:52;23.30;44.50
48806;DHT22;34625;47.176;27.548;2022-11-30T10:31:38;23.30;43.20
48806;DHT22;34625;47.176;27.548;2022-11-30T10:34:21;23.30;40.00
48806;DHT22;34625;47.176;27.548;2022-11-30T10:36:58;23.30;38.50
48806;DHT22;34625;47.176;27.548;2022-11-30T10:39:36;23.30;40.10
48806;DHT22;34625;47.176;27.548;2022-11-30T10:44:42;23.50;51.80
48806;DHT22;34625;47.176;27.548;2022-11-30T10:47:25;23.70;47.20
48806;DHT22;34625;47.176;27.548;2022-11-30T10:49:53;23.60;42.60
48806;DHT22;34625;47.176;27.548;2022-11-30T10:52:26;23.60;42.30
48806;DHT22;34625;47.176;27.548;2022-11-30T10:54:54;23.50;41.80
48806;DHT22;34625;47.176;27.548;2022-11-30T10:57:25;23.50;43.50
48806;DHT22;34625;47.176;27.548;2022-11-30T10:59:54;23.40;39.20
48806;DHT22;34625;47.176;27.548;2022-11-30T11:02:59;23.50;41.70
48806;DHT22;34625;47.176;27.548;2022-11-30T11:05:29;23.50;42.70
48806;DHT22;34625;47.176;27.548;2022-11-30T11:08:18;23.60;47.50
48806;DHT22;34625;47.176;27.548;2022-11-30T11:10:49;23.50;44.20
48806;DHT22;34625;47.176;27.548;2022-11-30T11:13:38;23.50;40.40
48806;DHT22;34625;47.176;27.548;2022-11-30T11:16:05;23.30;42.30
48806;DHT22;34625;47.176;27.548;2022-11-30T11:18:33;23.40;50.80
48806;DHT22;34625;47.176;27.548;2022-11-30T11:23:41;23.40;51.00
48806;DHT22;34625;47.176;27.548;2022-11-30T11:26:27;23.30;51.50
48806;DHT22;34625;47.176;27.548;2022-11-30T11:28:56;23.30;51.70
48806;DHT22;34625;47.176;27.548;2022-11-30T11:31:44;23.20;52.20
48806;DHT22;34625;47.176;27.548;2022-11-30T11:34:31;23.00;52.50
48806;DHT22;34625;47.176;27.548;2022-11-30T11:37:27;23.10;52.90
48806;DHT22;34625;47.176;27.548;2022-11-30T11:42:47;22.80;53.60
48806;DHT22;34625;47.176;27.548;2022-11-30T11:45:17;22.90;54.20
48806;DHT22;34625;47.176;27.548;2022-11-30T11:47:45;22.90;54.50
48806;DHT22;34625;47.176;27.548;2022-11-30T11:52:37;22.80;54.80
48806;DHT22;34625;47.176;27.548;2022-11-30T11:55:13;22.70;54.80
48806;DHT22;34625;47.176;27.548;2022-11-30T11:57:47;22.60;54.80
48806;DHT22;34625;47.176;27.548;2022-11-30T12:00:20;22.70;55.00
48806;DHT22;34625;47.176;27.548;2022-11-30T12:02:57;22.60;55.00
48806;DHT22;34625;47.176;27.548;2022-11-30T12:05:46;22.60;55.10
48806;DHT22;34625;47.176;27.548;2022-11-30T12:08:34;22.60;55.40
48806;DHT22;34625;47.176;27.548;2022-11-30T12:11:28;22.60;55.40
48806;DHT22;34625;47.176;27.548;2022-11-30T12:13:56;22.70;55.70
48806;DHT22;34625;47.176;27.548;2022-11-30T12:19:16;22.70;55.70
48806;DHT22;34625;47.176;27.548;2022-11-30T12:45:47;22.60;59.80
48806;DHT22;34625;47.176;27.548;2022-11-30T12:58:39;22.60;57.30
48806;DHT22;34625;47.176;27.548;2022-11-30T13:06:23;22.50;57.20
48806;DHT22;34625;47.176;27.548;2022-11-30T13:11:42;22.40;57.00
48806;DHT22;34625;47.176;27.548;2022-11-30T13:14:21;22.40;57.50
48806;DHT22;34625;47.176;27.548;2022-11-30T13:16:49;22.40;57.60
48806;DHT22;34625;47.176;27.548;2022-11-30T13:24:54;22.40;58.00
48806;DHT22;34625;47.176;27.548;2022-11-30T13:30:12;22.50;58.00
48806;DHT22;34625;47.176;27.548;2022-11-30T13:32:41;22.50;58.20
48806;DHT22;34625;47.176;27.548;2022-11-30T13:38:25;22.50;58.00
48806;DHT22;34625;47.176;27.548;2022-11-30T13:41:03;22.70;57.80
48806;DHT22;34625;47.176;27.548;2022-11-30T13:43:33;22.60;57.50
48806;DHT22;34625;47.176;27.548;2022-11-30T13:46:12;22.70;57.50
48806;DHT22;34625;47.176;27.548;2022-11-30T13:48:41;22.70;57.30
48806;DHT22;34625;47.176;27.548;2022-11-30T13:51:07;22.70;57.00
48806;DHT22;34625;47.176;27.548;2022-11-30T13:53:35;22.70;57.20
48806;DHT22;34625;47.176;27.548;2022-11-30T14:01:41;22.50;57.20
48806;DHT22;34625;47.176;27.548;2022-11-30T14:04:30;22.60;57.10
48806;DHT22;34625;47.176;27.548;2022-11-30T14:06:56;22.60;57.00
48806;DHT22;34625;47.176;27.548;2022-11-30T14:15:24;22.70;57.30
48806;DHT22;34625;47.176;27.548;2022-11-30T14:17:54;22.70;57.20
48806;DHT22;34625;47.176;27.548;2022-11-30T14:20:24;22.70;57.30
48806;DHT22;34625;47.176;27.548;2022-11-30T14:22:52;22.70;57.20
48806;DHT22;34625;47.176;27.548;2022-11-30T14:25:20;22.70;57.20
48806;DHT22;34625;47.176;27.548;2022-11-30T14:27:49;22.80;56.90
48806;DHT22;34625;47.176;27.548;2022-11-30T14:30:18;22.70;57.00
48806;DHT22;34625;47.176;27.548;2022-11-30T14:32:50;22.80;57.20
48806;DHT22;34625;47.176;27.548;2022-11-30T14:35:18;22.70;56.90
48806;DHT22;34625;47.176;27.548;2022-11-30T14:37:52;22.70;56.70
48806;DHT22;34625;47.176;27.548;2022-11-30T14:40:21;22.60;56.50
48806;DHT22;34625;47.176;27.548;2022-11-30T14:42:59;22.60;56.70
48806;DHT22;34625;47.176;27.548;2022-11-30T14:45:32;22.50;56.90
48806;DHT22;34625;47.176;27.548;2022-11-30T14:50:32;22.50;57.80
48806;DHT22;34625;47.176;27.548;2022-11-30T14:53:06;22.50;57.70
48806;DHT22;34625;47.176;27.548;2022-11-30T14:55:48;22.60;57.60
48806;DHT22;34625;47.176;27.548;2022-11-30T15:00:58;22.50;57.70
48806;DHT22;34625;47.176;27.548;2022-11-30T15:03:32;22.50;57.90
48806;DHT22;34625;47.176;27.548;2022-11-30T15:06:02;22.50;58.00
48806;DHT22;34625;47.176;27.548;2022-11-30T15:08:40;22.70;63.20
48806;DHT22;34625;47.176;27.548;2022-11-30T15:11:10;23.10;53.60
48806;DHT22;34625;47.176;27.548;2022-11-30T15:13:43;23.30;46.50
48806;DHT22;34625;47.176;27.548;2022-11-30T15:18:51;23.60;57.30
48806;DHT22;34625;47.176;27.548;2022-11-30T15:21:21;24.00;59.50
48806;DHT22;34625;47.176;27.548;2022-11-30T15:23:50;24.70;60.60
48806;DHT22;34625;47.176;27.548;2022-11-30T15:29:08;25.00;50.30
48806;DHT22;34625;47.176;27.548;2022-11-30T15:31:42;25.00;47.30
48806;DHT22;34625;47.176;27.548;2022-11-30T15:37:01;25.20;45.70
48806;DHT22;34625;47.176;27.548;2022-11-30T15:39:27;25.20;46.40
48806;DHT22;34625;47.176;27.548;2022-11-30T15:42:02;25.30;49.20
48806;DHT22;34625;47.176;27.548;2022-11-30T15:44:42;25.30;48.40
48806;DHT22;34625;47.176;27.548;2022-11-30T15:47:24;25.40;45.90
48806;DHT22;34625;47.176;27.548;2022-11-30T15:49:53;25.40;45.40
48806;DHT22;34625;47.176;27.548;2022-11-30T15:52:27;25.40;44.80
48806;DHT22;34625;47.176;27.548;2022-11-30T15:54:58;25.30;44.40
48806;DHT22;34625;47.176;27.548;2022-11-30T15:58:00;25.30;44.00
48806;DHT22;34625;47.176;27.548;2022-11-30T16:00:26;25.30;42.80
48806;DHT22;34625;47.176;27.548;2022-11-30T16:03:11;25.30;42.90
48806;DHT22;34625;47.176;27.548;2022-11-30T16:05:55;25.20;43.10
48806;DHT22;34625;47.176;27.548;2022-11-30T16:08:22;25.20;43.50
48806;DHT22;34625;47.176;27.548;2022-11-30T16:10:48;25.10;43.80
48806;DHT22;34625;47.176;27.548;2022-11-30T16:13:15;25.00;44.40
48806;DHT22;34625;47.176;27.548;2022-11-30T16:15:47;25.00;44.40
48806;DHT22;34625;47.176;27.548;2022-11-30T16:18:25;25.00;44.20
48806;DHT22;34625;47.176;27.548;2022-11-30T16:20:59;24.90;44.40
48806;DHT22;34625;47.176;27.548;2022-11-30T16:23:26;24.70;45.00
48806;DHT22;34625;47.176;27.548;2022-11-30T16:25:52;24.50;46.00
48806;DHT22;34625;47.176;27.548;2022-11-30T16:28:19;24.50;46.90
48806;DHT22;34625;47.176;27.548;2022-11-30T16:30:46;24.40;50.40
48806;DHT22;34625;47.176;27.548;2022-11-30T16:33:17;24.80;52.60
48806;DHT22;34625;47.176;27.548;2022-11-30T16:38:17;25.90;46.60
48806;DHT22;34625;47.176;27.548;2022-11-30T16:40:43;25.90;45.30
48806;DHT22;34625;47.176;27.548;2022-11-30T16:43:10;25.80;45.20
48806;DHT22;34625;47.176;27.548;2022-11-30T16:45:37;25.40;45.80
48806;DHT22;34625;47.176;27.548;2022-11-30T16:48:05;25.40;46.60
48806;DHT22;34625;47.176;27.548;2022-11-30T16:50:31;25.00;47.60
48806;DHT22;34625;47.176;27.548;2022-11-30T16:53:00;24.80;48.20
48806;DHT22;34625;47.176;27.548;2022-11-30T16:55:32;24.70;48.50
48806;DHT22;34625;47.176;27.548;2022-11-30T16:57:59;24.50;48.90
48806;DHT22;34625;47.176;27.548;2022-11-30T17:00:26;24.40;49.30
48806;DHT22;34625;47.176;27.548;2022-11-30T17:05:21;24.20;50.40
48806;DHT22;34625;47.176;27.548;2022-11-30T17:07:47;23.90;52.50
48806;DHT22;34625;47.176;27.548;2022-11-30T17:10:13;23.90;54.80
48806;DHT22;34625;47.176;27.548;2022-11-30T17:12:39;23.80;53.90
48806;DHT22;34625;47.176;27.548;2022-11-30T17:15:06;23.60;53.10
48806;DHT22;34625;47.176;27.548;2022-11-30T17:17:32;23.60;53.70
48806;DHT22;34625;47.176;27.548;2022-11-30T17:19:58;23.50;53.80
48806;DHT22;34625;47.176;27.548;2022-11-30T17:22:24;23.50;53.90
48806;DHT22;34625;47.176;27.548;2022-11-30T17:24:49;23.40;53.80
48806;DHT22;34625;47.176;27.548;2022-11-30T17:27:15;23.40;53.80
48806;DHT22;34625;47.176;27.548;2022-11-30T17:29:41;23.40;53.60
48806;DHT22;34625;47.176;27.548;2022-11-30T17:32:08;23.40;53.70
48806;DHT22;34625;47.176;27.548;2022-11-30T17:34:34;23.40;53.80
48806;DHT22;34625;47.176;27.548;2022-11-30T17:37:00;23.30;54.00
48806;DHT22;34625;47.176;27.548;2022-11-30T17:39:25;23.30;54.00
48806;DHT22;34625;47.176;27.548;2022-11-30T17:41:51;23.20;54.00
48806;DHT22;34625;47.176;27.548;2022-11-30T17:44:17;23.20;53.60
48806;DHT22;34625;47.176;27.548;2022-11-30T17:46:43;23.20;54.80